sensor_id;sensor_type;location;lat;lon;timestamp;temperature;humidity
5711;DHT22;61291;52.524;13.422;2024-02-26T00:00:29;3.90;99.90
5711;DHT22;61291;52.524;13.422;2024-02-26T00:02:55;3.70;99.90
5711;DHT22;61291;52.524;13.422;2024-02-26T00:05:21;3.60;99.90
5711;DHT22;61291;52.524;13.422;2024-02-26T00:07:46;3.50;99.90
5711;DHT22;61291;52.524;13.422;2024-02-26T00:10:13;3.40;99.90
5711;DHT22;61291;52.524;13.422;2024-02-26T00:12:38;3.50;99.90
5711;DHT22;61291;52.524;13.422;2024-02-26T00:15:05;3.40;99.90
5711;DHT22;61291;52.524;13.422;2024-02-26T00:17:31;3.30;99.90
5711;DHT22;61291;52.524;13.422;2024-02-26T00:19:56;3.20;99.90
5711;DHT22;61291;52.524;13.422;2024-02-26T00:22:22;3.30;99.90
5711;DHT22;61291;52.524;13.422;2024-02-26T00:24:47;3.20;99.90
5711;DHT22;61291;52.524;13.422;2024-02-26T00:27:13;3.20;99.90
5711;DHT22;61291;52.524;13.422;2024-02-26T00:29:38;3.10;99.90
5711;DHT22;61291;52.524;13.422;2024-02-26T00:32:04;3.10;99.90
5711;DHT22;61291;52.524;13.422;2024-02-26T00:34:30;3.40;99.90
5711;DHT22;61291;52.524;13.422;2024-02-26T00:36:56;3.30;99.90
5711;DHT22;61291;52.524;13.422;2024-02-26T00:39:21;3.40;99.90
5711;DHT22;61291;52.524;13.422;2024-02-26T00:41:46;3.30;99.90
5711;DHT22;61291;52.524;13.422;2024-02-26T00:44:12;3.20;99.90
5711;DHT22;61291;52.524;13.422;2024-02-26T00:46:38;3.20;99.90
5711;DHT22;61291;52.524;13.422;2024-02-26T00:49:03;3.20;99.90
5711;DHT22;61291;52.524;13.422;2024-02-26T00:51:28;3.20;99.90
5711;DHT22;61291;52.524;13.422;2024-02-26T00:53:54;3.20;99.90
5711;DHT22;61291;52.524;13.422;2024-02-26T00:56:21;3.10;99.90
5711;DHT22;61291;52.524;13.422;2024-02-26T00:58:47;3.30;99.90
5711;DHT22;61291;52.524;13.422;2024-02-26T01:01:12;3.30;99.90
5711;DHT22;61291;52.524;13.422;2024-02-26T01:03:38;3.40;99.90
5711;DHT22;61291;52.524;13.422;2024-02-26T01:06:04;3.40;99.90
5711;DHT22;61291;52.524;13.422;2024-02-26T01:08:29;3.40;99.90
5711;DHT22;61291;52.524;13.422;2024-02-26T01:10:55;3.50;99.90
5711;DHT22;61291;52.524;13.422;2024-02-26T01:13:20;3.40;99.90
5711;DHT22;61291;52.524;13.422;2024-02-26T01:15:46;3.50;99.90
5711;DHT22;61291;52.524;13.422;2024-02-26T01:18:12;3.50;99.90
5711;DHT22;61291;52.524;13.422;2024-02-26T01:20:37;3.40;99.90
5711;DHT22;61291;52.524;13.422;2024-02-26T01:23:03;3.40;99.90
5711;DHT22;61291;52.524;13.422;2024-02-26T01:25:28;3.40;99.90
5711;DHT22;61291;52.524;13.422;2024-02-26T01:27:54;3.40;99.90
5711;DHT22;61291;52.524;13.422;2024-02-26T01:30:19;3.30;99.90
5711;DHT22;61291;52.524;13.422;2024-02-26T01:32:45;3.20;99.90
5711;DHT22;61291;52.524;13.422;2024-02-26T01:35:11;3.10;99.90
5711;DHT22;61291;52.524;13.422;2024-02-26T01:37:37;3.10;99.90
5711;DHT22;61291;52.524;13.422;2024-02-26T01:40:03;3.10;99.90
5711;DHT22;61291;52.524;13.422;2024-02-26T01:42:30;3.00;99.90
5711;DHT22;61291;52.524;13.422;2024-02-26T01:44:56;3.00;99.90
5711;DHT22;61291;52.524;13.422;2024-02-26T01:47:22;3.00;99.90
5711;DHT22;61291;52.524;13.422;2024-02-26T01:49:48;3.20;99.90
5711;DHT22;61291;52.524;13.422;2024-02-26T01:52:14;3.10;99.90
5711;DHT22;61291;52.524;13.422;2024-02-26T01:54:40;3.00;99.90
5711;DHT22;61291;52.524;13.422;2024-02-26T01:57:08;2.80;99.90
5711;DHT22;61291;52.524;13.422;2024-02-26T01:59:34;2.70;99.90
5711;DHT22;61291;52.524;13.422;2024-02-26T02:02:01;2.80;99.90
5711;DHT22;61291;52.524;13.422;2024-02-26T02:04:28;2.70;99.90
5711;DHT22;61291;52.524;13.422;2024-02-26T02:06:54;2.60;99.90
5711;DHT22;61291;52.524;13.422;2024-02-26T02:09:20;2.60;99.90
5711;DHT22;61291;52.524;13.422;2024-02-26T02:11:48;2.60;99.90
5711;DHT22;61291;52.524;13.422;2024-02-26T02:14:14;2.70;99.90
5711;DHT22;61291;52.524;13.422;2024-02-26T02:16:39;2.70;99.90
5711;DHT22;61291;52.524;13.422;2024-02-26T02:19:05;2.70;99.90
5711;DHT22;61291;52.524;13.422;2024-02-26T02:21:31;2.60;99.90
5711;DHT22;61291;52.524;13.422;2024-02-26T02:23:56;2.60;99.90
5711;DHT22;61291;52.524;13.422;2024-02-26T02:26:21;2.60;99.90
5711;DHT22;61291;52.524;13.422;2024-02-26T02:28:47;2.80;99.90
5711;DHT22;61291;52.524;13.422;2024-02-26T02:31:14;2.80;99.90
5711;DHT22;61291;52.524;13.422;2024-02-26T02:33:40;2.80;99.90
5711;DHT22;61291;52.524;13.422;2024-02-26T02:36:06;2.60;99.90
5711;DHT22;61291;52.524;13.422;2024-02-26T02:38:38;2.50;99.90
5711;DHT22;61291;52.524;13.422;2024-02-26T02:41:04;2.40;99.90
5711;DHT22;61291;52.524;13.422;2024-02-26T02:43:30;2.30;99.90
5711;DHT22;61291;52.524;13.422;2024-02-26T02:45:55;2.20;99.90
5711;DHT22;61291;52.524;13.422;2024-02-26T02:48:21;2.30;99.90
5711;DHT22;61291;52.524;13.422;2024-02-26T02:50:46;2.30;99.90
5711;DHT22;61291;52.524;13.422;2024-02-26T02:53:12;2.30;99.90
5711;DHT22;61291;52.524;13.422;2024-02-26T02:55:37;2.40;99.90
5711;DHT22;61291;52.524;13.422;2024-02-26T02:58:03;2.30;99.90
5711;DHT22;61291;52.524;13.422;2024-02-26T03:00:28;2.50;99.90
5711;DHT22;61291;52.524;13.422;2024-02-26T03:02:54;2.40;99.90
5711;DHT22;61291;52.524;13.422;2024-02-26T03:05:19;2.50;99.90
5711;DHT22;61291;52.524;13.422;2024-02-26T03:07:45;2.60;99.90
5711;DHT22;61291;52.524;13.422;2024-02-26T03:10:10;2.60;99.90
5711;DHT22;61291;52.524;13.422;2024-02-26T03:12:36;2.50;99.90
5711;DHT22;61291;52.524;13.422;2024-02-26T03:15:02;2.70;99.90
5711;DHT22;61291;52.524;13.422;2024-02-26T03:17:30;2.70;99.90
5711;DHT22;61291;52.524;13.422;2024-02-26T03:19:56;2.70;99.90
5711;DHT22;61291;52.524;13.422;2024-02-26T03:22:21;2.70;99.90
5711;DHT22;61291;52.524;13.422;2024-02-26T03:24:47;2.80;99.90
5711;DHT22;61291;52.524;13.422;2024-02-26T03:27:13;2.80;99.90
5711;DHT22;61291;52.524;13.422;2024-02-26T03:29:39;2.80;99.90
5711;DHT22;61291;52.524;13.422;2024-02-26T03:32:05;2.80;99.90
5711;DHT22;61291;52.524;13.422;2024-02-26T03:34:32;2.80;99.90
5711;DHT22;61291;52.524;13.422;2024-02-26T03:37:00;2.80;99.90
5711;DHT22;61291;52.524;13.422;2024-02-26T03:39:25;2.90;99.90
5711;DHT22;61291;52.524;13.422;2024-02-26T03:41:51;2.90;99.90
5711;DHT22;61291;52.524;13.422;2024-02-26T03:44:16;2.90;99.90
5711;DHT22;61291;52.524;13.422;2024-02-26T03:46:42;2.90;99.90
5711;DHT22;61291;52.524;13.422;2024-02-26T03:49:10;2.80;99.90
5711;DHT22;61291;52.524;13.422;2024-02-26T03:51:36;2.80;99.90
5711;DHT22;61291;52.524;13.422;2024-02-26T03:54:01;2.80;99.90
5711;DHT22;61291;52.524;13.422;2024-02-26T03:56:27;2.70;99.90
5711;DHT22;61291;52.524;13.422;2024-02-26T03:58:53;2.60;99.90
5711;DHT22;61291;52.524;13.422;2024-02-26T04:01:18;2.60;99.90
5711;DHT22;61291;52.524;13.422;2024-02-26T04:03:44;2.60;99.90
5711;DHT22;61291;52.524;13.422;2024-02-26T04:06:10;2.60;99.90
5711;DHT22;61291;52.524;13.422;2024-02-26T04:08:36;2.60;99.90
5711;DHT22;61291;52.524;13.422;2024-02-26T04:11:02;2.50;99.90
5711;DHT22;61291;52.524;13.422;2024-02-26T04:13:35;2.50;99.90
5711;DHT22;61291;52.524;13.422;2024-02-26T04:16:01;2.50;99.90
5711;DHT22;61291;52.524;13.422;2024-02-26T04:18:27;2.60;99.90
5711;DHT22;61291;52.524;13.422;2024-02-26T04:20:53;2.60;99.90
5711;DHT22;61291;52.524;13.422;2024-02-26T04:23:19;2.70;99.90
5711;DHT22;61291;52.524;13.422;2024-02-26T04:25:45;2.50;99.90
5711;DHT22;61291;52.524;13.422;2024-02-26T04:28:10;2.50;99.90
5711;DHT22;61291;52.524;13.422;2024-02-26T04:30:36;2.50;99.90
5711;DHT22;61291;52.524;13.422;2024-02-26T04:33:02;2.60;99.90
5711;DHT22;61291;52.524;13.422;2024-02-26T04:35:28;2.60;99.90
5711;DHT22;61291;52.524;13.422;2024-02-26T04:37:53;2.60;99.90
5711;DHT22;61291;52.524;13.422;2024-02-26T04:40:18;2.60;99.90
5711;DHT22;61291;52.524;13.422;2024-02-26T04:42:44;2.60;99.90
5711;DHT22;61291;52.524;13.422;2024-02-26T04:45:09;2.50;99.90
5711;DHT22;61291;52.524;13.422;2024-02-26T04:47:35;2.40;99.90
5711;DHT22;61291;52.524;13.422;2024-02-26T04:50:00;2.50;99.90
5711;DHT22;61291;52.524;13.422;2024-02-26T04:52:26;2.70;99.90
5711;DHT22;61291;52.524;13.422;2024-02-26T04:54:51;2.50;99.90
5711;DHT22;61291;52.524;13.422;2024-02-26T04:57:17;2.50;99.90
5711;DHT22;61291;52.524;13.422;2024-02-26T04:59:45;2.50;99.90
5711;DHT22;61291;52.524;13.422;2024-02-26T05:02:12;2.50;99.90
5711;DHT22;61291;52.524;13.422;2024-02-26T05:04:37;2.50;99.90
5711;DHT22;61291;52.524;13.422;2024-02-26T05:07:03;2.60;99.90
5711;DHT22;61291;52.524;13.422;2024-02-26T05:09:29;2.70;99.90
5711;DHT22;61291;52.524;13.422;2024-02-26T05:11:54;2.70;99.90
5711;DHT22;61291;52.524;13.422;2024-02-26T05:14:20;2.70;99.90
5711;DHT22;61291;52.524;13.422;2024-02-26T05:16:45;2.80;99.90
5711;DHT22;61291;52.524;13.422;2024-02-26T05:19:11;2.80;99.90
5711;DHT22;61291;52.524;13.422;2024-02-26T05:21:36;2.80;99.90
5711;DHT22;61291;52.524;13.422;2024-02-26T05:24:02;2.80;99.90
5711;DHT22;61291;52.524;13.422;2024-02-26T05:26:27;2.80;99.90
5711;DHT22;61291;52.524;13.422;2024-02-26T05:28:53;2.80;99.90
5711;DHT22;61291;52.524;13.422;2024-02-26T05:31:18;2.80;99.90
5711;DHT22;61291;52.524;13.422;2024-02-26T05:33:44;2.80;99.90
5711;DHT22;61291;52.524;13.422;2024-02-26T05:36:10;2.80;99.90
5711;DHT22;61291;52.524;13.422;2024-02-26T05:38:35;2.80;99.90
5711;DHT22;61291;52.524;13.422;2024-02-26T05:41:01;2.80;99.90
5711;DHT22;61291;52.524;13.422;2024-02-26T05:43:26;2.80;99.90
5711;DHT22;61291;52.524;13.422;2024-02-26T05:45:52;2.80;99.90
5711;DHT22;61291;52.524;13.422;2024-02-26T05:48:18;2.80;99.90
5711;DHT22;61291;52.524;13.422;2024-02-26T05:50:47;2.90;99.90
5711;DHT22;61291;52.524;13.422;2024-02-26T05:53:13;2.90;99.90
5711;DHT22;61291;52.524;13.422;2024-02-26T05:55:38;2.90;99.90
5711;DHT22;61291;52.524;13.422;2024-02-26T05:58:04;2.90;99.90
5711;DHT22;61291;52.524;13.422;2024-02-26T06:00:30;2.90;99.90
5711;DHT22;61291;52.524;13.422;2024-02-26T06:02:55;2.80;99.90
5711;DHT22;61291;52.524;13.422;2024-02-26T06:05:21;2.90;99.90
5711;DHT22;61291;52.524;13.422;2024-02-26T06:07:46;3.00;99.90
5711;DHT22;61291;52.524;13.422;2024-02-26T06:10:12;3.00;99.90
5711;DHT22;61291;52.524;13.422;2024-02-26T06:12:39;3.00;99.90
5711;DHT22;61291;52.524;13.422;2024-02-26T06:15:04;3.10;99.90
5711;DHT22;61291;52.524;13.422;2024-02-26T06:17:30;3.20;99.90
5711;DHT22;61291;52.524;13.422;2024-02-26T06:19:56;3.20;99.90
5711;DHT22;61291;52.524;13.422;2024-02-26T06:22:21;3.30;99.90
5711;DHT22;61291;52.524;13.422;2024-02-26T06:24:48;3.30;99.90
5711;DHT22;61291;52.524;13.422;2024-02-26T06:27:13;3.50;99.90
5711;DHT22;61291;52.524;13.422;2024-02-26T06:29:39;3.70;99.90
5711;DHT22;61291;52.524;13.422;2024-02-26T06:32:05;3.80;99.90
5711;DHT22;61291;52.524;13.422;2024-02-26T06:34:30;3.90;99.90
5711;DHT22;61291;52.524;13.422;2024-02-26T06:36:56;4.10;99.90
5711;DHT22;61291;52.524;13.422;2024-02-26T06:39:21;4.30;99.90
5711;DHT22;61291;52.524;13.422;2024-02-26T06:41:46;4.60;99.90
5711;DHT22;61291;52.524;13.422;2024-02-26T06:44:13;4.90;99.90
5711;DHT22;61291;52.524;13.422;2024-02-26T06:46:39;5.40;99.90
5711;DHT22;61291;52.524;13.422;2024-02-26T06:49:05;5.60;99.90
5711;DHT22;61291;52.524;13.422;2024-02-26T06:51:30;5.80;99.90
5711;DHT22;61291;52.524;13.422;2024-02-26T06:53:56;6.10;99.90
5711;DHT22;61291;52.524;13.422;2024-02-26T06:56:21;6.40;99.90
5711;DHT22;61291;52.524;13.422;2024-02-26T06:58:47;6.50;99.90
5711;DHT22;61291;52.524;13.422;2024-02-26T07:01:12;7.00;99.90
5711;DHT22;61291;52.524;13.422;2024-02-26T07:03:40;7.40;99.90
5711;DHT22;61291;52.524;13.422;2024-02-26T07:06:06;7.80;99.90
5711;DHT22;61291;52.524;13.422;2024-02-26T07:08:32;7.50;99.90
5711;DHT22;61291;52.524;13.422;2024-02-26T07:10:57;7.10;99.90
5711;DHT22;61291;52.524;13.422;2024-02-26T07:13:23;6.80;99.90
5711;DHT22;61291;52.524;13.422;2024-02-26T07:15:48;6.70;99.90
5711;DHT22;61291;52.524;13.422;2024-02-26T07:18:14;6.60;99.90
5711;DHT22;61291;52.524;13.422;2024-02-26T07:20:39;6.40;99.90
5711;DHT22;61291;52.524;13.422;2024-02-26T07:23:05;6.30;99.90
5711;DHT22;61291;52.524;13.422;2024-02-26T07:25:32;6.30;99.90
5711;DHT22;61291;52.524;13.422;2024-02-26T07:27:57;6.20;99.90
5711;DHT22;61291;52.524;13.422;2024-02-26T07:30:23;6.20;99.90
5711;DHT22;61291;52.524;13.422;2024-02-26T07:32:50;6.20;99.90
5711;DHT22;61291;52.524;13.422;2024-02-26T07:35:15;6.20;99.90
5711;DHT22;61291;52.524;13.422;2024-02-26T07:37:41;6.20;99.90
5711;DHT22;61291;52.524;13.422;2024-02-26T07:40:07;6.20;99.90
5711;DHT22;61291;52.524;13.422;2024-02-26T07:42:33;6.30;99.90
5711;DHT22;61291;52.524;13.422;2024-02-26T07:44:59;6.30;99.90
5711;DHT22;61291;52.524;13.422;2024-02-26T07:47:24;6.40;99.90
5711;DHT22;61291;52.524;13.422;2024-02-26T07:49:50;6.50;99.90
5711;DHT22;61291;52.524;13.422;2024-02-26T07:52:15;6.60;99.90
5711;DHT22;61291;52.524;13.422;2024-02-26T07:54:41;6.80;99.90
5711;DHT22;61291;52.524;13.422;2024-02-26T07:57:06;6.90;99.90
5711;DHT22;61291;52.524;13.422;2024-02-26T07:59:32;7.10;99.90
5711;DHT22;61291;52.524;13.422;2024-02-26T08:01:58;7.10;99.90
5711;DHT22;61291;52.524;13.422;2024-02-26T08:04:24;7.20;99.90
5711;DHT22;61291;52.524;13.422;2024-02-26T08:06:51;7.50;99.90
5711;DHT22;61291;52.524;13.422;2024-02-26T08:09:17;7.60;99.90
5711;DHT22;61291;52.524;13.422;2024-02-26T08:11:42;7.80;99.90
5711;DHT22;61291;52.524;13.422;2024-02-26T08:14:08;7.90;99.90
5711;DHT22;61291;52.524;13.422;2024-02-26T08:16:33;8.20;99.90
5711;DHT22;61291;52.524;13.422;2024-02-26T08:18:59;8.40;99.90
5711;DHT22;61291;52.524;13.422;2024-02-26T08:21:24;8.70;99.90
5711;DHT22;61291;52.524;13.422;2024-02-26T08:23:50;8.80;99.90
5711;DHT22;61291;52.524;13.422;2024-02-26T08:26:15;9.10;99.90
5711;DHT22;61291;52.524;13.422;2024-02-26T08:28:41;9.40;99.90
5711;DHT22;61291;52.524;13.422;2024-02-26T08:31:06;9.50;99.90
5711;DHT22;61291;52.524;13.422;2024-02-26T08:33:32;9.60;99.90
5711;DHT22;61291;52.524;13.422;2024-02-26T08:35:59;9.80;99.90
5711;DHT22;61291;52.524;13.422;2024-02-26T08:38:24;10.10;99.90
5711;DHT22;61291;52.524;13.422;2024-02-26T08:40:50;10.30;99.90
5711;DHT22;61291;52.524;13.422;2024-02-26T08:43:15;10.60;99.90
5711;DHT22;61291;52.524;13.422;2024-02-26T08:45:44;10.70;99.90
5711;DHT22;61291;52.524;13.422;2024-02-26T08:48:09;10.70;99.90
5711;DHT22;61291;52.524;13.422;2024-02-26T08:50:35;10.70;99.90
5711;DHT22;61291;52.524;13.422;2024-02-26T08:53:00;10.70;99.90
5711;DHT22;61291;52.524;13.422;2024-02-26T08:55:27;10.70;99.90
5711;DHT22;61291;52.524;13.422;2024-02-26T08:57:52;10.70;99.90
5711;DHT22;61291;52.524;13.422;2024-02-26T09:00:18;10.60;99.90
5711;DHT22;61291;52.524;13.422;2024-02-26T09:02:46;10.60;99.90
5711;DHT22;61291;52.524;13.422;2024-02-26T09:05:12;10.60;99.90
5711;DHT22;61291;52.524;13.422;2024-02-26T09:07:37;10.80;99.90
5711;DHT22;61291;52.524;13.422;2024-02-26T09:10:03;10.90;99.90
5711;DHT22;61291;52.524;13.422;2024-02-26T09:12:29;11.00;99.90
5711;DHT22;61291;52.524;13.422;2024-02-26T09:14:55;11.00;99.90
5711;DHT22;61291;52.524;13.422;2024-02-26T09:17:22;10.90;99.90
5711;DHT22;61291;52.524;13.422;2024-02-26T09:19:48;11.00;99.90
5711;DHT22;61291;52.524;13.422;2024-02-26T09:22:14;11.20;99.90
5711;DHT22;61291;52.524;13.422;2024-02-26T09:24:39;11.30;99.90
5711;DHT22;61291;52.524;13.422;2024-02-26T09:27:05;11.30;99.90
5711;DHT22;61291;52.524;13.422;2024-02-26T09:29:30;11.30;99.90
5711;DHT22;61291;52.524;13.422;2024-02-26T09:31:56;11.30;99.90
5711;DHT22;61291;52.524;13.422;2024-02-26T09:34:21;11.20;99.90
5711;DHT22;61291;52.524;13.422;2024-02-26T09:36:47;11.20;99.90
5711;DHT22;61291;52.524;13.422;2024-02-26T09:39:12;11.20;99.90
5711;DHT22;61291;52.524;13.422;2024-02-26T09:41:39;11.20;99.90
5711;DHT22;61291;52.524;13.422;2024-02-26T09:44:05;11.20;99.90
5711;DHT22;61291;52.524;13.422;2024-02-26T09:46:31;11.20;99.90
5711;DHT22;61291;52.524;13.422;2024-02-26T09:48:57;11.00;99.90
5711;DHT22;61291;52.524;13.422;2024-02-26T09:51:23;11.10;99.90
5711;DHT22;61291;52.524;13.422;2024-02-26T09:53:52;11.10;99.90
5711;DHT22;61291;52.524;13.422;2024-02-26T09:56:18;11.20;99.90
5711;DHT22;61291;52.524;13.422;2024-02-26T09:58:43;11.20;99.90
5711;DHT22;61291;52.524;13.422;2024-02-26T10:01:16;11.30;99.90
5711;DHT22;61291;52.524;13.422;2024-02-26T10:03:42;11.40;99.90
5711;DHT22;61291;52.524;13.422;2024-02-26T10:06:10;11.50;99.90
5711;DHT22;61291;52.524;13.422;2024-02-26T10:08:36;11.50;99.90
5711;DHT22;61291;52.524;13.422;2024-02-26T10:11:06;11.70;99.90
5711;DHT22;61291;52.524;13.422;2024-02-26T10:13:32;11.70;99.90
5711;DHT22;61291;52.524;13.422;2024-02-26T10:15:57;11.80;99.90
5711;DHT22;61291;52.524;13.422;2024-02-26T10:18:24;11.90;99.90
5711;DHT22;61291;52.524;13.422;2024-02-26T10:21:03;12.10;99.90
5711;DHT22;61291;52.524;13.422;2024-02-26T10:23:28;12.30;99.90
5711;DHT22;61291;52.524;13.422;2024-02-26T10:25:56;12.40;99.90
5711;DHT22;61291;52.524;13.422;2024-02-26T10:28:22;12.60;99.90
5711;DHT22;61291;52.524;13.422;2024-02-26T10:30:48;12.70;99.90
5711;DHT22;61291;52.524;13.422;2024-02-26T10:33:14;12.80;99.90
5711;DHT22;61291;52.524;13.422;2024-02-26T10:35:45;12.90;99.90
5711;DHT22;61291;52.524;13.422;2024-02-26T10:38:10;12.90;99.90
5711;DHT22;61291;52.524;13.422;2024-02-26T10:40:36;13.10;99.90
5711;DHT22;61291;52.524;13.422;2024-02-26T10:43:02;13.10;99.40
5711;DHT22;61291;52.524;13.422;2024-02-26T10:45:27;13.20;99.40
5711;DHT22;61291;52.524;13.422;2024-02-26T10:47:53;13.20;99.00
5711;DHT22;61291;52.524;13.422;2024-02-26T10:50:19;13.20;98.70
5711;DHT22;61291;52.524;13.422;2024-02-26T10:52:45;13.20;98.70
5711;DHT22;61291;52.524;13.422;2024-02-26T10:55:16;13.30;97.70
5711;DHT22;61291;52.524;13.422;2024-02-26T10:57:45;13.30;97.30
5711;DHT22;61291;52.524;13.422;2024-02-26T11:00:14;13.20;97.60
5711;DHT22;61291;52.524;13.422;2024-02-26T11:02:41;13.20;97.40
5711;DHT22;61291;52.524;13.422;2024-02-26T11:05:07;13.20;97.40
5711;DHT22;61291;52.524;13.422;2024-02-26T11:07:36;13.30;97.30
5711;DHT22;61291;52.524;13.422;2024-02-26T11:10:03;13.30;97.00
5711;DHT22;61291;52.524;13.422;2024-02-26T11:12:31;13.30;97.10
5711;DHT22;61291;52.524;13.422;2024-02-26T11:14:57;13.40;97.10
5711;DHT22;61291;52.524;13.422;2024-02-26T11:17:26;13.50;97.00
5711;DHT22;61291;52.524;13.422;2024-02-26T11:19:55;13.30;96.50
5711;DHT22;61291;52.524;13.422;2024-02-26T11:22:21;13.30;96.30
5711;DHT22;61291;52.524;13.422;2024-02-26T11:24:48;13.20;96.60
5711;DHT22;61291;52.524;13.422;2024-02-26T11:27:17;13.20;96.50
5711;DHT22;61291;52.524;13.422;2024-02-26T11:29:48;13.20;96.40
5711;DHT22;61291;52.524;13.422;2024-02-26T11:32:14;13.00;96.20
5711;DHT22;61291;52.524;13.422;2024-02-26T11:34:40;13.00;96.70
5711;DHT22;61291;52.524;13.422;2024-02-26T11:37:10;13.30;96.80
5711;DHT22;61291;52.524;13.422;2024-02-26T11:39:36;13.20;96.20
5711;DHT22;61291;52.524;13.422;2024-02-26T11:42:08;13.30;96.20
5711;DHT22;61291;52.524;13.422;2024-02-26T11:44:35;13.50;96.20
5711;DHT22;61291;52.524;13.422;2024-02-26T11:47:21;13.60;96.20
5711;DHT22;61291;52.524;13.422;2024-02-26T11:49:47;14.00;96.40
5711;DHT22;61291;52.524;13.422;2024-02-26T11:52:14;14.00;95.90
5711;DHT22;61291;52.524;13.422;2024-02-26T11:54:46;14.00;95.70
5711;DHT22;61291;52.524;13.422;2024-02-26T11:57:22;13.90;95.60
5711;DHT22;61291;52.524;13.422;2024-02-26T11:59:48;13.80;94.70
5711;DHT22;61291;52.524;13.422;2024-02-26T12:05:19;14.00;94.70
5711;DHT22;61291;52.524;13.422;2024-02-26T12:07:52;14.20;95.10
5711;DHT22;61291;52.524;13.422;2024-02-26T12:10:30;14.40;95.30
5711;DHT22;61291;52.524;13.422;2024-02-26T12:13:11;14.60;95.40
5711;DHT22;61291;52.524;13.422;2024-02-26T12:15:45;14.50;95.70
5711;DHT22;61291;52.524;13.422;2024-02-26T12:18:17;14.30;95.30
5711;DHT22;61291;52.524;13.422;2024-02-26T12:20:42;14.20;95.80
5711;DHT22;61291;52.524;13.422;2024-02-26T12:23:16;14.30;95.80
5711;DHT22;61291;52.524;13.422;2024-02-26T12:25:43;14.10;95.40
5711;DHT22;61291;52.524;13.422;2024-02-26T12:28:09;14.20;95.80
5711;DHT22;61291;52.524;13.422;2024-02-26T12:30:35;14.40;95.90
5711;DHT22;61291;52.524;13.422;2024-02-26T12:33:01;14.50;95.80
5711;DHT22;61291;52.524;13.422;2024-02-26T12:35:27;14.60;95.70
5711;DHT22;61291;52.524;13.422;2024-02-26T12:37:54;14.90;95.60
5711;DHT22;61291;52.524;13.422;2024-02-26T12:40:19;15.10;95.20
5711;DHT22;61291;52.524;13.422;2024-02-26T12:42:45;15.00;94.70
5711;DHT22;61291;52.524;13.422;2024-02-26T12:45:12;15.00;94.60
5711;DHT22;61291;52.524;13.422;2024-02-26T12:47:39;15.10;94.60
5711;DHT22;61291;52.524;13.422;2024-02-26T12:50:05;15.10;94.20
5711;DHT22;61291;52.524;13.422;2024-02-26T12:52:35;15.00;94.10
5711;DHT22;61291;52.524;13.422;2024-02-26T12:55:02;14.80;93.40
5711;DHT22;61291;52.524;13.422;2024-02-26T12:57:30;14.80;93.50
5711;DHT22;61291;52.524;13.422;2024-02-26T12:59:57;14.80;93.40
5711;DHT22;61291;52.524;13.422;2024-02-26T13:02:23;14.70;93.10
5711;DHT22;61291;52.524;13.422;2024-02-26T13:04:48;14.60;93.10
5711;DHT22;61291;52.524;13.422;2024-02-26T13:07:14;14.40;92.70
5711;DHT22;61291;52.524;13.422;2024-02-26T13:09:40;14.30;92.30
5711;DHT22;61291;52.524;13.422;2024-02-26T13:12:06;14.30;92.70
5711;DHT22;61291;52.524;13.422;2024-02-26T13:14:32;14.20;92.70
5711;DHT22;61291;52.524;13.422;2024-02-26T13:17:00;14.30;92.60
5711;DHT22;61291;52.524;13.422;2024-02-26T13:19:26;14.50;92.20
5711;DHT22;61291;52.524;13.422;2024-02-26T13:21:53;14.50;91.90
5711;DHT22;61291;52.524;13.422;2024-02-26T13:24:19;14.60;91.80
5711;DHT22;61291;52.524;13.422;2024-02-26T13:26:45;14.60;91.50
5711;DHT22;61291;52.524;13.422;2024-02-26T13:29:18;14.70;91.40
5711;DHT22;61291;52.524;13.422;2024-02-26T13:31:43;14.60;89.90
5711;DHT22;61291;52.524;13.422;2024-02-26T13:34:09;14.70;90.50
5711;DHT22;61291;52.524;13.422;2024-02-26T13:36:34;14.90;90.60
5711;DHT22;61291;52.524;13.422;2024-02-26T13:38:59;14.80;89.90
5711;DHT22;61291;52.524;13.422;2024-02-26T13:41:26;14.70;89.00
5711;DHT22;61291;52.524;13.422;2024-02-26T13:43:52;14.70;89.50
5711;DHT22;61291;52.524;13.422;2024-02-26T13:46:18;14.80;89.40
5711;DHT22;61291;52.524;13.422;2024-02-26T13:48:43;14.70;88.50
5711;DHT22;61291;52.524;13.422;2024-02-26T13:51:10;14.80;88.80
5711;DHT22;61291;52.524;13.422;2024-02-26T13:53:35;14.70;88.40
5711;DHT22;61291;52.524;13.422;2024-02-26T13:56:01;14.50;88.50
5711;DHT22;61291;52.524;13.422;2024-02-26T13:58:29;14.40;87.20
5711;DHT22;61291;52.524;13.422;2024-02-26T14:00:55;14.50;87.90
5711;DHT22;61291;52.524;13.422;2024-02-26T14:03:20;14.50;87.90
5711;DHT22;61291;52.524;13.422;2024-02-26T14:05:46;14.20;87.00
5711;DHT22;61291;52.524;13.422;2024-02-26T14:08:12;13.60;87.70
5711;DHT22;61291;52.524;13.422;2024-02-26T14:10:38;13.80;88.60
5711;DHT22;61291;52.524;13.422;2024-02-26T14:13:03;13.80;88.80
5711;DHT22;61291;52.524;13.422;2024-02-26T14:15:29;13.80;89.30
5711;DHT22;61291;52.524;13.422;2024-02-26T14:17:55;13.80;89.70
5711;DHT22;61291;52.524;13.422;2024-02-26T14:20:24;13.80;90.00
5711;DHT22;61291;52.524;13.422;2024-02-26T14:22:50;13.80;90.00
5711;DHT22;61291;52.524;13.422;2024-02-26T14:25:17;13.90;90.10
5711;DHT22;61291;52.524;13.422;2024-02-26T14:27:43;13.90;90.10
5711;DHT22;61291;52.524;13.422;2024-02-26T14:30:08;13.70;90.20
5711;DHT22;61291;52.524;13.422;2024-02-26T14:32:34;13.70;90.30
5711;DHT22;61291;52.524;13.422;2024-02-26T14:35:02;13.50;90.10
5711;DHT22;61291;52.524;13.422;2024-02-26T14:37:28;13.60;90.40
5711;DHT22;61291;52.524;13.422;2024-02-26T14:39:53;13.40;90.60
5711;DHT22;61291;52.524;13.422;2024-02-26T14:42:19;13.30;90.70
5711;DHT22;61291;52.524;13.422;2024-02-26T14:44:45;13.10;91.00
5711;DHT22;61291;52.524;13.422;2024-02-26T14:47:13;13.20;91.20
5711;DHT22;61291;52.524;13.422;2024-02-26T14:49:38;12.90;91.50
5711;DHT22;61291;52.524;13.422;2024-02-26T14:52:04;12.90;91.50
5711;DHT22;61291;52.524;13.422;2024-02-26T14:54:29;12.90;91.70
5711;DHT22;61291;52.524;13.422;2024-02-26T14:56:58;12.80;91.80
5711;DHT22;61291;52.524;13.422;2024-02-26T14:59:24;12.80;91.80
5711;DHT22;61291;52.524;13.422;2024-02-26T15:01:49;12.70;91.90
5711;DHT22;61291;52.524;13.422;2024-02-26T15:04:15;12.60;92.00
5711;DHT22;61291;52.524;13.422;2024-02-26T15:06:41;12.70;92.10
5711;DHT22;61291;52.524;13.422;2024-02-26T15:09:07;12.60;92.00
5711;DHT22;61291;52.524;13.422;2024-02-26T15:11:32;12.60;92.00
5711;DHT22;61291;52.524;13.422;2024-02-26T15:13:58;12.60;91.90
5711;DHT22;61291;52.524;13.422;2024-02-26T15:16:23;12.50;91.80
5711;DHT22;61291;52.524;13.422;2024-02-26T15:18:49;12.30;91.90
5711;DHT22;61291;52.524;13.422;2024-02-26T15:21:14;12.20;92.10
5711;DHT22;61291;52.524;13.422;2024-02-26T15:23:42;12.20;92.20
5711;DHT22;61291;52.524;13.422;2024-02-26T15:26:09;12.10;92.30
5711;DHT22;61291;52.524;13.422;2024-02-26T15:28:34;12.00;92.60
5711;DHT22;61291;52.524;13.422;2024-02-26T15:31:00;12.00;92.70
5711;DHT22;61291;52.524;13.422;2024-02-26T15:33:25;12.00;92.70
5711;DHT22;61291;52.524;13.422;2024-02-26T15:35:50;12.00;92.70